Time;durP1;ratioP1;P1;durP2;ratioP2;P2;SDS_P1;SDS_P2;PMS_P1;PMS_P2;Temp;Humidity;BMP_temperature;BMP_pressure;BME280_temperature;BME280_humidity;BME280_pressure;Samples;Min_cycle;Max_cycle;Signal;HPM_P1;HPM_P2
2022/10/17 00:01:29;;;;;;;7.28;4.13;;;15.30;99.90;;;;;;5046421;28;20048;-69
2022/10/17 00:03:54;;;;;;;5.22;4.18;;;15.30;99.90;;;;;;5044821;28;20376;-69
2022/10/17 00:06:20;;;;;;;7.93;4.45;;;15.40;99.90;;;;;;5035004;28;20484;-69
2022/10/17 00:08:45;;;;;;;6.15;4.28;;;15.30;99.90;;;;;;5033852;28;20083;-68
2022/10/17 00:11:18;;;;;;;6.60;3.92;;;15.30;99.90;;;;;;5040604;28;20033;-69
2022/10/17 00:13:45;;;;;;;9.23;3.88;;;15.20;99.90;;;;;;5045381;28;20365;-68
2022/10/17 00:16:11;;;;;;;7.15;3.85;;;15.20;99.90;;;;;;5039773;28;20033;-69
2022/10/17 00:18:37;;;;;;;13.45;4.57;;;15.10;99.90;;;;;;5046729;28;20032;-69
2022/10/17 00:21:03;;;;;;;8.25;4.63;;;15.10;99.90;;;;;;5036651;28;20028;-69
2022/10/17 00:23:29;;;;;;;9.40;4.30;;;15.10;99.90;;;;;;5031041;28;20049;-69
2022/10/17 00:26:03;;;;;;;7.68;4.85;;;15.00;99.90;;;;;;5051835;28;20019;-69
2022/10/17 00:28:29;;;;;;;14.95;4.78;;;15.00;99.90;;;;;;5050529;28;20495;-69
2022/10/17 00:31:00;;;;;;;8.02;4.22;;;14.90;99.90;;;;;;5050037;28;20037;-69
2022/10/17 00:33:27;;;;;;;16.73;6.25;;;15.00;99.90;;;;;;5067118;28;20023;-68
2022/10/17 00:36:28;;;;;;;8.10;4.47;;;15.10;99.90;;;;;;5066829;28;20059;-68
2022/10/17 00:38:57;;;;;;;5.28;4.13;;;15.20;99.90;;;;;;4964948;28;20100;-69
2022/10/17 00:41:27;;;;;;;9.27;5.53;;;15.20;99.90;;;;;;5033281;28;20043;-69
2022/10/17 00:44:24;;;;;;;10.20;4.25;;;15.30;99.90;;;;;;5041322;28;20387;-68
2022/10/17 00:46:50;;;;;;;8.60;5.22;;;15.30;99.90;;;;;;5029596;28;20130;-70
2022/10/17 00:49:15;;;;;;;6.97;4.15;;;15.30;99.90;;;;;;5050061;28;20643;-68
2022/10/17 00:51:49;;;;;;;6.85;4.15;;;15.30;99.90;;;;;;5050870;28;20041;-68
2022/10/17 00:54:17;;;;;;;5.90;4.45;;;15.20;99.90;;;;;;5048700;28;20021;-69
2022/10/17 00:56:45;;;;;;;6.32;4.63;;;15.10;99.90;;;;;;5042285;28;20040;-68
2022/10/17 00:59:13;;;;;;;6.03;4.68;;;15.10;99.90;;;;;;5045216;28;20029;-68
2022/10/17 01:01:47;;;;;;;6.15;4.30;;;15.00;99.90;;;;;;5047965;28;20029;-69
2022/10/17 01:04:13;;;;;;;7.70;4.00;;;15.00;99.90;;;;;;5048540;28;20120;-69
2022/10/17 01:06:38;;;;;;;7.38;3.95;;;15.00;99.90;;;;;;5047649;28;20551;-68
2022/10/17 01:09:04;;;;;;;7.00;4.70;;;15.00;99.90;;;;;;5047154;28;20103;-68
2022/10/17 01:11:59;;;;;;;5.25;3.88;;;15.00;99.90;;;;;;5039572;28;20021;-68
2022/10/17 01:14:24;;;;;;;6.20;4.30;;;15.00;99.90;;;;;;5047402;28;20087;-69
2022/10/17 01:17:04;;;;;;;5.15;3.72;;;14.90;99.90;;;;;;5049391;28;20447;-69
2022/10/17 01:19:42;;;;;;;5.78;4.03;;;14.90;99.90;;;;;;5047400;28;20099;-68
2022/10/17 01:22:39;;;;;;;6.05;4.07;;;14.80;99.90;;;;;;5048218;28;20492;-69
2022/10/17 01:25:29;;;;;;;11.45;4.97;;;14.80;99.90;;;;;;5045189;28;20033;-69
2022/10/17 01:28:23;;;;;;;7.78;5.13;;;14.80;99.90;;;;;;5043217;28;20033;-69
2022/10/17 01:31:13;;;;;;;6.07;4.63;;;14.80;99.90;;;;;;5043852;28;20017;-69
2022/10/17 01:34:04;;;;;;;5.75;4.20;;;14.70;99.90;;;;;;5047652;28;20112;-68
2022/10/17 01:36:44;;;;;;;8.45;4.40;;;14.60;99.90;;;;;;5048339;28;20487;-69
2022/10/17 01:39:36;;;;;;;7.72;4.75;;;14.70;99.90;;;;;;5049501;28;20024;-69
2022/10/17 01:42:16;;;;;;;11.05;5.45;;;14.60;99.90;;;;;;5049329;28;20081;-69
2022/10/17 01:44:54;;;;;;;12.55;4.95;;;14.60;99.90;;;;;;5050521;28;20052;-69
2022/10/17 01:47:24;;;;;;;5.93;4.55;;;14.60;99.90;;;;;;5048972;28;20005;-68
2022/10/17 01:49:53;;;;;;;6.68;4.93;;;14.60;99.90;;;;;;5048208;28;20032;-69
2022/10/17 01:52:24;;;;;;;8.95;4.85;;;14.50;99.90;;;;;;5049373;28;20021;-69
2022/10/17 01:55:02;;;;;;;7.35;5.03;;;14.50;99.90;;;;;;5050312;28;20028;-69
2022/10/17 01:57:36;;;;;;;8.18;4.63;;;14.50;99.90;;;;;;5049353;28;20028;-68
2022/10/17 02:00:07;;;;;;;9.32;4.47;;;14.40;99.90;;;;;;5044754;28;20576;-68
2022/10/17 02:02:34;;;;;;;8.57;4.93;;;14.40;99.90;;;;;;5047222;28;20021;-68
2022/10/17 02:05:01;;;;;;;10.15;5.20;;;14.40;99.90;;;;;;5046206;28;20025;-69
2022/10/17 02:07:27;;;;;;;8.93;4.82;;;14.40;99.90;;;;;;5047815;28;20025;-69
2022/10/17 02:09:52;;;;;;;7.63;4.80;;;14.40;99.90;;;;;;5049585;28;20024;-68
2022/10/17 02:12:27;;;;;;;12.77;5.45;;;14.40;99.90;;;;;;5047770;28;20020;-68
2022/10/17 02:15:11;;;;;;;11.25;5.00;;;14.40;99.90;;;;;;5043569;28;20071;-68
2022/10/17 02:17:58;;;;;;;11.98;4.63;;;14.30;99.90;;;;;;5046380;28;20032;-69
2022/10/17 02:20:58;;;;;;;8.00;4.90;;;14.30;99.90;;;;;;5048312;28;20107;-69
2022/10/17 02:23:34;;;;;;;8.40;4.97;;;14.30;99.90;;;;;;5024129;28;20041;-68
2022/10/17 02:26:12;;;;;;;12.10;5.75;;;14.30;99.90;;;;;;5049644;28;20407;-68
2022/10/17 02:28:55;;;;;;;5.85;4.43;;;14.20;99.90;;;;;;5048544;28;20510;-69
2022/10/17 02:31:27;;;;;;;7.53;4.88;;;14.20;99.90;;;;;;5045540;28;20079;-68
2022/10/17 02:34:00;;;;;;;6.85;4.85;;;14.20;99.90;;;;;;5047785;28;20039;-68
2022/10/17 02:36:34;;;;;;;6.60;4.60;;;14.20;99.90;;;;;;5062800;28;20538;-69
2022/10/17 02:39:02;;;;;;;9.63;4.85;;;14.20;99.90;;;;;;5041889;28;20551;-68
2022/10/17 02:41:30;;;;;;;10.75;5.05;;;14.20;99.90;;;;;;5047981;28;20017;-69
2022/10/17 02:43:56;;;;;;;23.65;5.63;;;14.20;99.90;;;;;;5046439;28;20033;-68
2022/10/17 02:46:24;;;;;;;10.70;5.28;;;14.20;99.90;;;;;;5041559;28;20028;-69
2022/10/17 02:49:04;;;;;;;7.57;4.63;;;14.20;99.90;;;;;;5048051;28;20021;-68
2022/10/17 02:51:35;;;;;;;6.45;4.93;;;14.20;99.90;;;;;;5046954;28;20056;-69
2022/10/17 02:54:23;;;;;;;8.95;4.65;;;14.30;99.90;;;;;;5047738;28;20512;-68
2022/10/17 02:56:57;;;;;;;8.43;5.10;;;14.20;99.90;;;;;;5047503;28;20107;-68
2022/10/17 02:59:26;;;;;;;9.00;5.40;;;14.20;99.90;;;;;;5047573;28;20033;-68
2022/10/17 03:01:52;;;;;;;16.58;6.28;;;14.20;99.90;;;;;;5048171;28;20020;-68
2022/10/17 03:04:18;;;;;;;16.65;5.63;;;14.30;99.90;;;;;;5053567;28;20100;-69
2022/10/17 03:06:45;;;;;;;6.50;5.07;;;14.30;99.90;;;;;;5048364;28;20155;-69
2022/10/17 03:09:11;;;;;;;8.68;5.70;;;14.30;99.90;;;;;;5050854;28;20106;-68
2022/10/17 03:11:36;;;;;;;8.27;5.45;;;14.30;99.90;;;;;;5050563;28;20515;-69
2022/10/17 03:14:02;;;;;;;6.80;5.07;;;14.40;99.90;;;;;;5052544;28;20029;-69
2022/10/17 03:16:28;;;;;;;10.60;5.65;;;14.40;99.90;;;;;;5050820;28;20700;-68
2022/10/17 03:18:53;;;;;;;7.38;4.95;;;14.40;99.90;;;;;;5051762;28;20511;-68
2022/10/17 03:21:19;;;;;;;22.10;6.55;;;14.50;99.90;;;;;;5049875;28;20036;-68
2022/10/17 03:23:45;;;;;;;5.70;4.40;;;14.50;99.90;;;;;;5049955;28;20083;-69
2022/10/17 03:26:10;;;;;;;6.03;4.68;;;14.50;99.90;;;;;;5051537;28;20044;-69
2022/10/17 03:28:36;;;;;;;8.93;4.75;;;14.60;99.90;;;;;;5051483;28;20021;-68
2022/10/17 03:31:11;;;;;;;7.65;4.68;;;14.60;99.90;;;;;;5050712;28;20146;-69
2022/10/17 03:33:37;;;;;;;8.32;5.22;;;14.50;99.90;;;;;;5049791;28;20040;-69
2022/10/17 03:36:08;;;;;;;5.28;4.28;;;14.50;99.90;;;;;;5051636;28;20033;-69
2022/10/17 03:38:34;;;;;;;5.78;5.03;;;14.40;99.90;;;;;;5051948;28;20075;-69
2022/10/17 03:41:00;;;;;;;5.85;3.75;;;14.40;99.90;;;;;;5052211;28;20052;-69
2022/10/17 03:43:26;;;;;;;5.30;3.42;;;14.30;99.90;;;;;;5051524;28;20029;-68
2022/10/17 03:45:52;;;;;;;6.13;4.70;;;14.30;99.90;;;;;;5049030;28;20025;-68
2022/10/17 03:48:17;;;;;;;6.35;4.43;;;14.30;99.90;;;;;;5050473;28;20021;-69
2022/10/17 03:50:43;;;;;;;12.73;5.43;;;14.30;99.90;;;;;;5053981;28;20562;-69
2022/10/17 03:53:08;;;;;;;5.85;4.70;;;14.30;99.90;;;;;;5050463;28;20025;-69
2022/10/17 03:55:34;;;;;;;8.00;4.82;;;14.30;99.90;;;;;;5050489;28;20024;-69
2022/10/17 03:57:59;;;;;;;9.65;5.20;;;14.30;99.90;;;;;;5050232;28;20021;-68
2022/10/17 04:00:25;;;;;;;10.52;4.68;;;14.30;99.90;;;;;;5051959;28;20098;-68
2022/10/17 04:02:51;;;;;;;8.02;4.90;;;14.30;99.90;;;;;;5051625;28;20104;-69
2022/10/17 04:05:16;;;;;;;8.57;4.70;;;14.30;99.90;;;;;;5052259;28;20029;-68
2022/10/17 04:07:42;;;;;;;6.38;4.85;;;14.30;99.90;;;;;;5057173;28;20033;-69
2022/10/17 04:10:08;;;;;;;7.90;4.68;;;14.30;99.90;;;;;;5058554;28;20029;-69
2022/10/17 04:12:33;;;;;;;7.43;5.10;;;14.30;99.90;;;;;;5064203;28;20050;-69
2022/10/17 04:14:59;;;;;;;10.40;4.55;;;14.40;99.90;;;;;;5070793;28;20033;-69
2022/10/17 04:17:25;;;;;;;8.98;5.03;;;14.30;99.90;;;;;;5052422;28;20139;-69
2022/10/17 04:19:50;;;;;;;8.18;4.40;;;14.40;99.90;;;;;;5052403;28;20061;-69
2022/10/17 04:22:16;;;;;;;6.95;4.47;;;14.30;99.90;;;;;;5052492;28;20036;-69
2022/10/17 04:24:42;;;;;;;12.00;5.10;;;14.30;99.90;;;;;;5032506;28;20053;-68
2022/10/17 04:27:07;;;;;;;9.23;5.55;;;14.30;99.90;;;;;;5049443;28;20544;-68
2022/10/17 04:29:33;;;;;;;11.10;4.55;;;14.20;99.90;;;;;;5049935;28;20021;-66
2022/10/17 04:31:59;;;;;;;6.05;4.63;;;14.20;99.90;;;;;;5043006;28;20075;-69
2022/10/17 04:34:24;;;;;;;7.53;5.35;;;14.20;99.90;;;;;;5050249;28;20029;-69
2022/10/17 04:36:50;;;;;;;6.65;4.85;;;14.20;99.90;;;;;;5049657;28;20044;-69
2022/10/17 04:39:16;;;;;;;8.25;4.82;;;14.20;99.90;;;;;;5048679;28;20047;-69
2022/10/17 04:41:42;;;;;;;11.18;5.00;;;14.30;99.90;;;;;;5064832;28;20457;-68
2022/10/17 04:44:09;;;;;;;7.70;5.05;;;14.30;99.90;;;;;;5050016;28;20032;-69
2022/10/17 04:46:35;;;;;;;11.73;5.07;;;14.30;99.90;;;;;;5050137;28;20044;-69
2022/10/17 04:49:00;;;;;;;9.10;4.97;;;14.30;99.90;;;;;;5051061;28;20025;-69
2022/10/17 04:51:26;;;;;;;9.68;4.93;;;14.30;99.90;;;;;;5049637;28;20085;-69
2022/10/17 04:53:52;;;;;;;7.65;5.18;;;14.30;99.90;;;;;;5050820;28;20036;-69
2022/10/17 04:56:19;;;;;;;7.85;4.20;;;14.20;99.90;;;;;;5049280;28;20124;-68
2022/10/17 04:58:46;;;;;;;7.03;4.80;;;14.20;99.90;;;;;;5049423;28;20039;-69
2022/10/17 05:01:14;;;;;;;10.65;5.07;;;14.20;99.90;;;;;;5049607;28;20621;-69
2022/10/17 05:03:39;;;;;;;5.55;4.75;;;14.10;99.90;;;;;;5049293;28;20029;-69
2022/10/17 05:06:11;;;;;;;7.93;5.28;;;14.10;99.90;;;;;;5050931;23;20052;-63
2022/10/17 05:08:36;;;;;;;11.23;4.85;;;14.10;99.90;;;;;;5008878;28;20424;-63
2022/10/17 05:11:03;;;;;;;7.18;4.65;;;14.10;99.90;;;;;;5006204;28;20113;-64
2022/10/17 05:13:29;;;;;;;9.70;5.60;;;14.00;99.90;;;;;;5010496;28;20145;-63
2022/10/17 05:15:59;;;;;;;13.20;5.50;;;14.00;99.90;;;;;;5011190;28;20100;-63
2022/10/17 05:18:24;;;;;;;9.55;5.82;;;14.00;99.90;;;;;;5010584;28;20030;-63
2022/10/17 05:20:50;;;;;;;7.90;4.75;;;14.00;99.90;;;;;;5008015;28;20030;-63
2022/10/17 05:23:15;;;;;;;10.48;5.30;;;14.00;99.90;;;;;;5009637;28;20034;-63
2022/10/17 05:25:41;;;;;;;8.02;4.82;;;14.10;99.90;;;;;;4992611;28;20532;-62
2022/10/17 05:28:06;;;;;;;8.13;5.30;;;14.10;99.90;;;;;;5010493;28;20420;-63
2022/10/17 05:30:34;;;;;;;6.85;4.85;;;14.10;99.90;;;;;;5006591;28;20037;-63
2022/10/17 05:33:00;;;;;;;8.55;4.75;;;14.10;99.90;;;;;;5024937;28;20489;-63
2022/10/17 05:35:25;;;;;;;9.00;5.70;;;14.10;99.90;;;;;;5026099;28;20104;-62
2022/10/17 05:37:51;;;;;;;8.60;5.47;;;14.10;99.90;;;;;;5007055;28;20030;-62
2022/10/17 05:40:17;;;;;;;7.88;4.95;;;14.20;99.90;;;;;;5010629;28;20485;-63
2022/10/17 05:42:48;;;;;;;8.02;4.80;;;14.10;99.90;;;;;;5008763;28;20030;-63
2022/10/17 05:45:15;;;;;;;11.00;5.90;;;14.10;99.90;;;;;;5009042;28;20025;-63
2022/10/17 05:47:40;;;;;;;7.20;5.00;;;14.20;99.90;;;;;;5008364;28;20032;-64
2022/10/17 05:50:07;;;;;;;6.68;5.03;;;14.20;99.90;;;;;;5008877;28;20034;-62
2022/10/17 05:52:33;;;;;;;6.38;4.82;;;14.20;99.90;;;;;;5015704;28;20095;-63
2022/10/17 05:54:58;;;;;;;9.30;5.57;;;14.20;99.90;;;;;;5018221;28;20026;-62
2022/10/17 05:57:25;;;;;;;12.00;5.25;;;14.20;99.90;;;;;;5012754;28;20032;-63
2022/10/17 05:59:50;;;;;;;6.53;4.50;;;14.20;99.90;;;;;;5018026;28;20028;-59
2022/10/17 06:02:16;;;;;;;9.48;5.18;;;14.20;99.90;;;;;;5009570;28;20029;-62
2022/10/17 06:04:44;;;;;;;10.00;5.70;;;14.30;99.90;;;;;;5008316;28;20026;-62
2022/10/17 06:07:11;;;;;;;7.00;5.47;;;14.30;99.90;;;;;;5007729;28;20025;-64
2022/10/17 06:09:37;;;;;;;9.25;5.10;;;14.40;99.90;;;;;;5008021;28;20497;-62
2022/10/17 06:12:03;;;;;;;6.45;4.43;;;14.50;99.90;;;;;;5007205;28;20041;-61
2022/10/17 06:14:29;;;;;;;8.27;4.63;;;14.50;99.90;;;;;;5007505;28;20455;-62
2022/10/17 06:16:54;;;;;;;7.82;4.38;;;14.50;99.90;;;;;;5006246;28;20030;-63
2022/10/17 06:19:20;;;;;;;6.20;3.97;;;14.60;99.90;;;;;;5013442;28;20036;-62
2022/10/17 06:21:46;;;;;;;8.45;4.35;;;14.70;99.90;;;;;;5007743;28;20041;-62
2022/10/17 06:24:11;;;;;;;7.28;4.70;;;14.70;99.90;;;;;;4994767;28;20133;-63
2022/10/17 06:26:37;;;;;;;10.90;4.47;;;14.70;99.90;;;;;;5007487;28;20037;-63
2022/10/17 06:29:03;;;;;;;5.60;4.10;;;14.80;99.90;;;;;;5007843;28;20034;-62
2022/10/17 06:31:28;;;;;;;8.57;4.40;;;14.80;99.90;;;;;;5007632;28;20034;-62
2022/10/17 06:33:54;;;;;;;11.57;3.92;;;14.90;99.90;;;;;;5007753;28;20053;-63
2022/10/17 06:36:20;;;;;;;5.55;4.32;;;15.00;99.90;;;;;;5007007;28;20488;-63
2022/10/17 06:38:45;;;;;;;5.00;3.53;;;15.10;99.90;;;;;;5005209;28;20426;-63
2022/10/17 06:41:13;;;;;;;11.88;4.75;;;15.20;99.90;;;;;;5006351;28;20433;-63
2022/10/17 06:43:47;;;;;;;13.70;3.85;;;15.30;99.90;;;;;;5007519;28;20057;-63
2022/10/17 06:46:14;;;;;;;5.13;3.75;;;15.40;99.90;;;;;;5007556;28;20022;-64
2022/10/17 06:48:40;;;;;;;7.88;3.78;;;15.40;99.90;;;;;;5021721;28;20050;-63
2022/10/17 06:51:08;;;;;;;4.03;3.10;;;15.50;99.90;;;;;;5007285;28;20092;-63
2022/10/17 06:53:34;;;;;;;22.25;3.78;;;15.60;99.90;;;;;;5017598;28;20061;-63
2022/10/17 06:56:02;;;;;;;8.45;3.15;;;15.60;99.90;;;;;;5024601;28;20100;-59
2022/10/17 06:58:33;;;;;;;9.40;3.28;;;15.70;99.90;;;;;;5024111;28;20026;-63
2022/10/17 07:01:00;;;;;;;8.07;3.75;;;15.80;99.90;;;;;;5008051;28;20040;-62
2022/10/17 07:03:25;;;;;;;7.40;3.30;;;15.90;99.90;;;;;;5009077;28;20409;-63
2022/10/17 07:05:52;;;;;;;5.90;3.45;;;15.90;99.90;;;;;;5005417;28;20018;-63
2022/10/17 07:08:18;;;;;;;9.38;3.67;;;16.00;99.90;;;;;;5016104;28;20019;-62
2022/10/17 07:10:43;;;;;;;6.85;3.85;;;16.10;99.90;;;;;;5023577;28;20034;-64
2022/10/17 07:13:09;;;;;;;4.38;3.47;;;16.20;99.90;;;;;;5006825;28;20481;-64
2022/10/17 07:15:36;;;;;;;6.15;3.22;;;16.40;99.90;;;;;;5007016;28;20053;-63
2022/10/17 07:18:02;;;;;;;4.70;3.20;;;16.50;99.90;;;;;;5021621;28;20029;-64
2022/10/17 07:20:27;;;;;;;4.00;2.90;;;16.70;99.90;;;;;;5004746;28;20033;-63
2022/10/17 07:22:53;;;;;;;5.53;2.97;;;16.90;99.90;;;;;;5006924;28;20040;-62
2022/10/17 07:25:19;;;;;;;9.18;2.80;;;17.10;99.90;;;;;;4992383;28;20057;-64
2022/10/17 07:27:44;;;;;;;5.75;3.22;;;17.20;99.90;;;;;;5007918;28;20128;-64
2022/10/17 07:30:10;;;;;;;3.42;2.63;;;17.40;99.90;;;;;;5008387;28;20050;-63
2022/10/17 07:32:36;;;;;;;3.20;2.25;;;17.50;99.90;;;;;;5007755;28;20026;-63
2022/10/17 07:35:01;;;;;;;3.58;2.67;;;17.70;99.90;;;;;;5007484;28;20026;-64
2022/10/17 07:37:28;;;;;;;6.53;2.65;;;17.80;99.90;;;;;;5007693;28;20477;-64
2022/10/17 07:39:55;;;;;;;15.02;3.00;;;17.90;99.90;;;;;;5008050;28;20382;-63
2022/10/17 07:42:21;;;;;;;4.03;2.85;;;17.90;99.90;;;;;;5007648;28;20022;-64
2022/10/17 07:44:46;;;;;;;4.03;2.75;;;17.90;99.90;;;;;;5008747;28;20430;-63
2022/10/17 07:47:12;;;;;;;11.02;2.28;;;17.90;99.90;;;;;;5007449;28;20022;-64
2022/10/17 07:49:42;;;;;;;3.10;2.47;;;17.80;99.90;;;;;;5009258;28;20049;-64
2022/10/17 07:52:15;;;;;;;4.40;2.58;;;17.80;99.90;;;;;;5007330;28;20030;-63
2022/10/17 07:54:41;;;;;;;7.78;2.50;;;17.80;99.90;;;;;;5008341;28;20030;-64
2022/10/17 07:57:08;;;;;;;6.95;2.30;;;17.80;99.90;;;;;;5007725;28;20038;-64
2022/10/17 07:59:34;;;;;;;4.72;2.42;;;17.80;99.90;;;;;;5010488;28;20091;-63
2022/10/17 08:02:00;;;;;;;4.53;2.47;;;17.80;99.90;;;;;;5027309;28;20439;-64
2022/10/17 08:04:26;;;;;;;4.10;2.65;;;17.90;99.90;;;;;;5009040;28;20022;-64
2022/10/17 08:06:52;;;;;;;11.63;2.30;;;17.90;99.90;;;;;;5010972;28;20049;-64
2022/10/17 08:09:18;;;;;;;5.80;2.10;;;18.00;99.90;;;;;;5000321;28;20030;-63
2022/10/17 08:11:43;;;;;;;4.55;2.08;;;18.10;99.90;;;;;;5009723;28;20033;-64
2022/10/17 08:14:13;;;;;;;3.97;2.10;;;18.10;99.90;;;;;;5009537;28;20029;-64
2022/10/17 08:16:39;;;;;;;4.85;2.58;;;18.10;99.90;;;;;;5003622;28;20033;-64
2022/10/17 08:19:07;;;;;;;7.10;2.63;;;18.10;99.90;;;;;;5012669;28;20050;-64
2022/10/17 08:21:34;;;;;;;4.32;2.38;;;18.10;99.90;;;;;;5009960;28;20041;-62
2022/10/17 08:24:01;;;;;;;8.60;2.92;;;18.20;99.90;;;;;;4994899;28;20153;-63
2022/10/17 08:26:27;;;;;;;4.65;2.50;;;18.20;99.90;;;;;;5010778;28;20034;-64
2022/10/17 08:28:53;;;;;;;5.85;2.33;;;18.30;99.90;;;;;;5012654;28;20030;-63
2022/10/17 08:31:20;;;;;;;3.90;1.75;;;18.30;99.90;;;;;;5009403;28;20110;-64
2022/10/17 08:33:47;;;;;;;10.40;3.22;;;18.40;99.90;;;;;;5010665;28;20026;-64
2022/10/17 08:36:15;;;;;;;3.50;2.25;;;18.40;99.90;;;;;;5011036;28;20113;-63
2022/10/17 08:38:42;;;;;;;4.25;2.35;;;18.40;99.90;;;;;;5011518;28;20025;-63
2022/10/17 08:41:48;;;;;;;5.22;2.20;;;18.50;99.90;;;;;;5009391;28;20018;-62
2022/10/17 08:44:32;;;;;;;3.25;2.08;;;18.60;99.90;;;;;;5005910;28;20041;-63
2022/10/17 08:47:00;;;;;;;;;;;18.60;99.90;;;;;;5007098;28;20076;-63
2022/10/17 08:49:28;;;;;;;2.33;2.00;;;18.70;99.90;;;;;;5009466;28;20426;-63
2022/10/17 08:52:01;;;;;;;6.07;2.45;;;18.70;99.90;;;;;;5007952;28;20034;-64
2022/10/17 08:54:40;;;;;;;6.38;2.97;;;18.80;99.90;;;;;;5009278;28;20470;-64
2022/10/17 08:57:11;;;;;;;4.05;2.40;;;19.00;99.90;;;;;;5007494;28;20029;-63
2022/10/17 08:59:36;;;;;;;5.28;2.78;;;19.10;99.90;;;;;;5009000;28;20030;-64
2022/10/17 09:02:22;;;;;;;6.20;2.85;;;19.30;99.90;;;;;;5008088;28;20029;-64
2022/10/17 09:05:06;;;;;;;5.28;3.20;;;19.30;99.90;;;;;;5009933;28;20025;-64
2022/10/17 09:08:10;;;;;;;3.60;2.30;;;19.50;99.90;;;;;;5010384;28;20621;-64
2022/10/17 09:11:10;;;;;;;6.15;2.40;;;19.70;99.90;;;;;;5004788;28;20420;-64
2022/10/17 09:13:44;;;;;;;3.53;2.13;;;19.80;99.90;;;;;;5007907;28;20444;-64
2022/10/17 09:16:30;;;;;;;4.15;2.22;;;19.80;99.90;;;;;;5010004;28;20022;-64
2022/10/17 09:19:00;;;;;;;5.10;2.25;;;19.80;99.90;;;;;;5004436;28;20036;-63
2022/10/17 09:21:43;;;;;;;4.50;2.22;;;20.10;99.90;;;;;;5007466;28;20033;-64
2022/10/17 09:24:38;;;;;;;5.95;2.40;;;20.20;99.90;;;;;;4993884;28;20022;-64
2022/10/17 09:27:10;;;;;;;11.35;3.20;;;20.50;99.90;;;;;;5008248;28;20065;-64
2022/10/17 09:29:36;;;;;;;5.90;2.30;;;20.60;99.90;;;;;;5005097;28;20112;-65
2022/10/17 09:32:10;;;;;;;3.55;1.98;;;21.00;99.90;;;;;;5007431;28;20410;-63
2022/10/17 09:34:36;;;;;;;5.93;1.90;;;21.40;99.90;;;;;;5010329;28;20034;-65
2022/10/17 09:37:02;;;;;;;3.70;2.20;;;21.90;99.90;;;;;;5009150;28;20171;-63
2022/10/17 09:39:30;;;;;;;7.03;2.08;;;22.50;99.90;;;;;;5009963;28;20029;-63
2022/10/17 09:41:58;;;;;;;7.93;1.75;;;22.70;99.90;;;;;;5002790;28;20033;-64
2022/10/17 09:44:28;;;;;;;4.55;1.92;;;22.40;99.90;;;;;;5004615;28;20033;-64
2022/10/17 09:47:06;;;;;;;3.55;2.00;;;22.20;99.90;;;;;;5009944;28;20774;-63
2022/10/17 09:49:46;;;;;;;5.82;2.00;;;22.30;99.90;;;;;;5009355;28;20084;-63
2022/10/17 09:52:14;;;;;;;9.20;2.60;;;22.30;99.90;;;;;;5008430;28;20022;-64
2022/10/17 09:54:49;;;;;;;4.28;2.00;;;22.20;99.90;;;;;;5009787;28;20393;-64
2022/10/17 09:57:16;;;;;;;4.20;1.92;;;22.10;99.90;;;;;;5005438;28;20057;-64
2022/10/17 09:59:46;;;;;;;3.97;2.00;;;22.10;99.90;;;;;;5010211;28;20049;-64
2022/10/17 10:02:12;;;;;;;5.43;2.30;;;21.80;99.90;;;;;;5007428;28;20113;-64
2022/10/17 10:05:00;;;;;;;5.72;2.38;;;21.80;99.90;;;;;;5006865;28;20097;-64
2022/10/17 10:07:28;;;;;;;4.20;1.95;;;21.90;99.90;;;;;;5006674;28;20034;-64
2022/10/17 10:09:55;;;;;;;8.23;1.73;;;21.70;99.90;;;;;;5007251;28;20048;-64
2022/10/17 10:12:33;;;;;;;6.00;2.65;;;21.70;99.90;;;;;;5008057;28;20060;-63
2022/10/17 10:14:59;;;;;;;5.32;2.10;;;21.60;99.90;;;;;;5010427;28;20045;-64
2022/10/17 10:17:42;;;;;;;13.90;2.13;;;21.70;99.90;;;;;;5006941;28;20029;-63
2022/10/17 10:20:25;;;;;;;;;;;21.60;99.90;;;;;;5010553;28;20109;-63
2022/10/17 10:23:05;;;;;;;11.82;2.08;;;21.50;99.90;;;;;;5009685;28;19910;-64
2022/10/17 10:25:31;;;;;;;4.13;2.10;;;21.70;99.90;;;;;;4991254;28;20049;-64
2022/10/17 10:27:57;;;;;;;10.73;2.63;;;21.90;99.90;;;;;;5008571;28;20034;-64
2022/10/17 10:30:28;;;;;;;5.50;2.00;;;22.10;99.90;;;;;;5008651;28;20030;-64
2022/10/17 10:32:56;;;;;;;9.75;2.53;;;22.10;99.90;;;;;;5009755;28;20057;-64
2022/10/17 10:35:34;;;;;;;7.20;2.38;;;22.40;99.90;;;;;;5007262;28;20026;-64
2022/10/17 10:38:08;;;;;;;4.97;3.05;;;22.50;99.90;;;;;;5009506;28;20049;-64
2022/10/17 10:40:51;;;;;;;5.13;2.20;;;22.40;99.90;;;;;;5009924;28;20034;-65
2022/10/17 10:43:27;;;;;;;7.82;1.73;;;22.30;99.90;;;;;;5008743;28;20025;-63
2022/10/17 10:45:53;;;;;;;4.43;1.95;;;22.40;99.90;;;;;;5009052;28;20065;-63
2022/10/17 10:48:36;;;;;;;6.40;2.35;;;22.30;99.90;;;;;;5008273;28;20052;-63
2022/10/17 10:51:12;;;;;;;5.13;1.85;;;22.40;99.90;;;;;;5017583;28;20063;-64
2022/10/17 10:53:52;;;;;;;4.25;2.50;;;22.60;99.90;;;;;;5010545;28;20037;-63
2022/10/17 10:56:19;;;;;;;4.95;2.20;;;22.60;99.90;;;;;;5018571;28;20092;-62
2022/10/17 10:59:00;;;;;;;3.88;1.98;;;22.60;99.90;;;;;;5015658;28;20554;-63
2022/10/17 11:02:04;;;;;;;4.30;1.92;;;22.70;99.90;;;;;;5015128;28;20053;-64
2022/10/17 11:04:56;;;;;;;4.68;2.50;;;22.70;99.90;;;;;;5007266;28;20029;-64
2022/10/17 11:07:54;;;;;;;4.32;2.35;;;22.70;99.90;;;;;;5031773;22;20038;-66
2022/10/17 11:10:43;;;;;;;4.18;2.45;;;22.80;99.90;;;;;;4987465;28;20038;-68
2022/10/17 11:13:18;;;;;;;3.60;2.05;;;22.70;99.90;;;;;;4982470;28;20515;-70
2022/10/17 11:16:05;;;;;;;10.05;2.20;;;22.70;99.90;;;;;;4988662;28;20034;-67
2022/10/17 11:18:53;;;;;;;4.55;1.80;;;22.60;99.90;;;;;;4986511;28;20516;-69
2022/10/17 11:21:46;;;;;;;4.55;1.90;;;22.50;99.90;;;;;;4988771;28;20034;-69
2022/10/17 11:24:40;;;;;;;3.60;1.85;;;22.50;99.90;;;;;;4988247;28;20019;-67
2022/10/17 11:27:07;;;;;;;8.70;2.03;;;22.50;99.90;;;;;;4969462;28;20097;-69
2022/10/17 11:29:37;;;;;;;5.70;1.80;;;22.50;99.90;;;;;;4991910;28;20022;-67
2022/10/17 11:32:40;;;;;;;6.75;2.50;;;22.40;99.90;;;;;;4992719;28;20069;-67
2022/10/17 11:35:32;;;;;;;3.92;2.20;;;22.10;99.90;;;;;;4992677;28;20046;-67
2022/10/17 11:38:20;;;;;;;3.97;1.83;;;22.00;99.90;;;;;;4993377;28;20015;-67
2022/10/17 11:40:49;;;;;;;3.53;1.95;;;22.10;99.90;;;;;;4990692;28;20038;-70
2022/10/17 11:43:26;;;;;;;4.13;1.80;;;22.00;99.90;;;;;;4990212;28;20474;-69
2022/10/17 11:46:02;;;;;;;7.35;2.42;;;22.00;99.90;;;;;;4990716;28;20069;-69
2022/10/17 11:48:39;;;;;;;3.72;1.90;;;22.10;99.90;;;;;;4981501;28;20026;-69
2022/10/17 11:51:09;;;;;;;4.10;1.80;;;22.10;99.90;;;;;;4989442;28;20557;-69
2022/10/17 11:53:48;;;;;;;10.63;2.03;;;22.10;99.90;;;;;;4988777;28;20042;-69
2022/10/17 11:56:19;;;;;;;3.90;2.22;;;22.10;99.90;;;;;;4992092;28;20041;-69
2022/10/17 11:59:18;;;;;;;3.42;2.20;;;22.10;99.90;;;;;;4989032;28;20037;-68
2022/10/17 12:01:53;;;;;;;9.10;2.42;;;21.90;99.90;;;;;;4990669;28;20026;-69
2022/10/17 12:04:43;;;;;;;3.92;2.08;;;21.90;99.90;;;;;;4998186;28;20472;-67
2022/10/17 12:07:45;;;;;;;7.40;1.92;;;21.80;99.90;;;;;;4992273;28;20053;-69
2022/10/17 12:10:23;;;;;;;6.60;2.30;;;21.80;99.90;;;;;;4988634;28;20038;-69
2022/10/17 12:12:48;;;;;;;3.90;2.15;;;21.90;99.90;;;;;;4989460;28;20037;-69
2022/10/17 12:15:22;;;;;;;4.97;2.17;;;21.90;99.90;;;;;;4991555;28;20474;-69
2022/10/17 12:18:10;;;;;;;;;;;21.90;99.90;;;;;;4988752;28;20033;-69
2022/10/17 12:20:37;;;;;;;4.97;2.28;;;22.00;99.90;;;;;;4994348;28;19917;-67
2022/10/17 12:23:05;;;;;;;8.23;2.45;;;22.00;99.90;;;;;;4988344;28;20030;-66
2022/10/17 12:25:38;;;;;;;5.10;2.05;;;21.90;99.90;;;;;;4978390;28;20101;-67
2022/10/17 12:28:31;;;;;;;6.10;2.33;;;21.90;99.90;;;;;;4992082;28;20684;-69
2022/10/17 12:30:58;;;;;;;7.67;2.63;;;21.80;99.90;;;;;;4986039;28;20694;-67
2022/10/17 12:33:27;;;;;;;6.05;2.55;;;21.90;99.90;;;;;;4991130;28;20022;-67
2022/10/17 12:36:30;;;;;;;9.40;2.40;;;21.80;99.90;;;;;;4991840;28;20073;-66
2022/10/17 12:39:02;;;;;;;5.25;2.60;;;21.70;99.90;;;;;;4989447;28;20410;-66
2022/10/17 12:41:52;;;;;;;8.07;2.42;;;21.90;99.90;;;;;;4990277;28;20027;-67
2022/10/17 12:44:20;;;;;;;7.43;2.28;;;22.00;99.90;;;;;;4996726;28;20043;-66
2022/10/17 12:47:04;;;;;;;6.82;2.42;;;22.00;99.90;;;;;;4991001;28;20113;-67
2022/10/17 12:49:40;;;;;;;6.10;2.83;;;21.90;99.90;;;;;;4989334;28;20019;-69
2022/10/17 12:52:44;;;;;;;4.68;2.53;;;21.90;99.90;;;;;;4990102;28;20038;-67
2022/10/17 12:55:11;;;;;;;;;;;22.00;99.90;;;;;;4935355;29;20034;-67
2022/10/17 12:57:46;;;;;;;4.35;2.05;;;22.10;99.90;;;;;;4931484;28;20421;-67
2022/10/17 13:00:49;;;;;;;6.75;2.35;;;22.10;99.90;;;;;;4958191;28;20042;-67
2022/10/17 13:03:22;;;;;;;4.82;2.35;;;22.30;99.90;;;;;;4945252;29;20262;-69
2022/10/17 13:05:51;;;;;;;9.68;2.80;;;22.40;99.90;;;;;;4983218;28;20030;-66
2022/10/17 13:08:38;;;;;;;6.25;2.30;;;22.50;99.90;;;;;;4988840;28;20030;-67
2022/10/17 13:11:05;;;;;;;4.88;2.45;;;22.50;99.90;;;;;;4989894;28;20117;-69